Time;durP1;ratioP1;P1;durP2;ratioP2;P2;SDS_P1;SDS_P2;PMS_P1;PMS_P2;Temp;Humidity;BMP_temperature;BMP_pressure;BME280_temperature;BME280_humidity;BME280_pressure;Samples;Min_cycle;Max_cycle;Signal;HPM_P1;HPM_P2
2023/09/02 00:01:27;;;;;;;13.00;5.20;;;;;;;16.09;100.00;99215.00;270333;1276;23276;-85
2023/09/02 00:08:32;;;;;;;15.20;5.40;;;;;;;16.09;100.00;99214.55;270780;1270;22214;-84
2023/09/02 00:16:19;;;;;;;10.00;5.40;;;;;;;16.09;100.00;99211.54;272097;1270;22425;-84
2023/09/02 00:23:14;;;;;;;13.30;5.30;;;;;;;16.12;100.00;99210.64;271192;1272;23750;-85
2023/09/02 00:31:07;;;;;;;9.00;5.50;;;;;;;16.12;100.00;99202.98;270119;1279;22589;-85
2023/09/02 00:38:34;;;;;;;;;;;;;;;16.16;100.00;99190.09;271699;1279;22489;-85
2023/09/02 00:46:25;;;;;;;5.70;3.70;;;;;;;16.17;100.00;99181.88;270105;1286;23115;-85
2023/09/02 00:53:56;;;;;;;4.60;3.10;;;;;;;16.17;100.00;99182.66;269449;1279;22321;-84
2023/09/02 01:01:40;;;;;;;5.90;3.60;;;;;;;16.21;100.00;99174.12;272445;1275;22226;-85
2023/09/02 01:17:05;;;;;;;;;;;;;;;16.20;100.00;99197.95;272068;1278;22559;-86
2023/09/02 01:40:41;;;;;;;6.90;3.90;;;;;;;16.07;100.00;99165.33;273768;1269;22358;-85
2023/09/02 01:57:01;;;;;;;6.80;3.60;;;;;;;16.16;100.00;99156.24;272140;1273;22364;-85
2023/09/02 02:04:55;;;;;;;5.50;2.90;;;;;;;16.17;100.00;99156.30;271991;1279;23609;-84
2023/09/02 02:12:41;;;;;;;4.90;3.20;;;;;;;16.20;100.00;99152.81;271460;1282;22251;-85
2023/09/02 02:20:42;;;;;;;3.50;2.60;;;;;;;16.24;100.00;99145.76;268170;1284;22589;-85
2023/09/02 02:28:22;;;;;;;4.30;2.90;;;;;;;16.26;100.00;99139.73;269306;1280;22437;-86
2023/09/02 02:35:51;;;;;;;4.40;2.80;;;;;;;16.26;100.00;99131.61;267943;1281;22551;-85
2023/09/02 02:43:09;;;;;;;5.90;2.70;;;;;;;16.24;100.00;99117.41;268560;1274;22764;-85
2023/09/02 02:50:32;;;;;;;3.00;2.40;;;;;;;16.21;100.00;99114.38;269912;1268;23364;-85
2023/09/02 02:57:19;;;;;;;3.20;2.50;;;;;;;16.19;100.00;99136.27;270693;1269;22738;-86
2023/09/02 03:04:00;;;;;;;8.30;6.10;;;;;;;16.10;100.00;99178.55;268970;1281;22240;-86
2023/09/02 03:11:29;;;;;;;8.30;6.90;;;;;;;16.06;100.00;99177.73;271938;1281;23048;-86
2023/09/02 03:18:54;;;;;;;9.90;6.00;;;;;;;16.10;100.00;99159.14;271030;1278;22569;-85
2023/09/02 03:42:23;;;;;;;5.70;5.20;;;;;;;16.14;100.00;99160.14;268800;1276;22547;-85
2023/09/02 03:58:26;;;;;;;6.20;4.90;;;;;;;16.09;100.00;99156.94;268663;1270;23036;-86
2023/09/02 04:06:08;;;;;;;6.40;4.80;;;;;;;16.07;100.00;99156.80;268480;1278;25289;-86
2023/09/02 04:14:02;;;;;;;7.90;4.80;;;;;;;16.09;100.00;99157.96;272746;1270;22431;-86
2023/09/02 04:22:15;;;;;;;5.20;4.40;;;;;;;16.08;100.00;99161.60;272602;1281;22721;-86
2023/09/02 04:37:30;;;;;;;5.10;3.80;;;;;;;16.04;100.00;99168.97;269529;1291;22252;-87
2023/09/02 04:52:44;;;;;;;10.30;4.50;;;;;;;16.20;100.00;99197.95;267591;1296;22574;-86
2023/09/02 05:08:05;;;;;;;;;;;;;;;16.30;100.00;99215.55;270994;1285;22440;-86
2023/09/02 05:15:16;;;;;;;18.70;8.40;;;;;;;16.30;100.00;99216.64;272082;1278;22444;-86
2023/09/02 05:37:32;;;;;;;11.20;7.60;;;;;;;16.36;100.00;99250.07;272346;1275;22304;-86
2023/09/02 05:43:34;;;;;;;13.90;7.50;;;;;;;16.36;100.00;99255.98;272528;1272;22347;-86
2023/09/02 05:49:37;;;;;;;11.20;7.40;;;;;;;16.44;100.00;99255.79;270586;1271;22563;-86
2023/09/02 05:55:38;;;;;;;9.80;6.70;;;;;;;16.51;100.00;99259.45;269546;1272;22630;-85
2023/09/02 06:01:39;;;;;;;7.80;7.00;;;;;;;16.55;100.00;99261.70;269496;1270;22543;-86
2023/09/02 06:07:40;;;;;;;11.20;6.90;;;;;;;16.61;100.00;99266.70;270102;1270;22618;-86
2023/09/02 06:37:09;;;;;;;6.60;2.90;;;;;;;16.82;100.00;99291.71;270495;1267;22679;-86
2023/09/02 06:43:10;;;;;;;5.70;3.60;;;;;;;16.87;100.00;99289.21;273368;1268;22313;-87
2023/09/02 06:49:10;;;;;;;4.40;2.80;;;;;;;16.91;100.00;99286.89;272939;1269;22384;-87
2023/09/02 06:55:14;;;;;;;6.30;2.60;;;;;;;16.98;100.00;99292.10;273483;1268;22335;-87
2023/09/02 07:01:22;;;;;;;4.70;2.90;;;;;;;17.06;100.00;99303.33;273439;1263;24497;-88
2023/09/02 07:07:24;;;;;;;4.10;3.20;;;;;;;17.13;100.00;99314.55;273684;1267;22402;-87
2023/09/02 07:13:25;;;;;;;12.20;7.50;;;;;;;17.19;100.00;99321.13;272004;1267;22537;-88
2023/09/02 07:19:26;;;;;;;15.40;9.60;;;;;;;17.25;100.00;99332.07;270202;1269;22567;-87
2023/09/02 07:25:27;;;;;;;14.60;9.30;;;;;;;17.21;100.00;99333.36;271020;1266;22540;-87
2023/09/02 07:31:28;;;;;;;11.40;9.20;;;;;;;17.24;100.00;99335.70;270691;1267;23652;-87
2023/09/02 07:54:07;;;;;;;15.80;10.20;;;;;;;17.51;100.00;99359.89;273697;1266;22830;-87
2023/09/02 08:00:08;;;;;;;19.60;10.60;;;;;;;17.59;100.00;99367.94;273543;1267;22200;-88
2023/09/02 09:09:19;;;;;;;11.40;7.00;;;;;;;17.92;100.00;99426.17;270592;1267;22647;-88
2023/09/02 09:15:22;;;;;;;8.10;5.10;;;;;;;18.02;100.00;99432.79;272370;1268;22549;-87
2023/09/02 09:21:23;;;;;;;4.50;3.60;;;;;;;17.95;100.00;99437.46;272186;1255;22392;-87
2023/09/02 09:27:24;;;;;;;3.80;2.80;;;;;;;17.78;100.00;99444.29;273429;1268;23161;-89
2023/09/02 09:33:25;;;;;;;5.20;2.70;;;;;;;17.84;100.00;99445.02;272712;1265;22543;-88
2023/09/02 09:39:39;;;;;;;2.60;2.30;;;;;;;17.99;100.00;99448.24;270507;1268;22533;-87
2023/09/02 09:45:49;;;;;;;3.70;2.10;;;;;;;18.14;100.00;99455.36;270557;1268;24200;-87
2023/09/02 09:52:09;;;;;;;2.50;1.90;;;;;;;18.23;100.00;99466.34;270560;1267;22628;-89
2023/09/02 09:58:10;;;;;;;5.50;1.40;;;;;;;18.38;100.00;99466.32;270710;1269;22327;-87
2023/09/02 10:04:12;;;;;;;1.80;1.00;;;;;;;18.55;100.00;99472.85;272285;1268;22328;-87
2023/09/02 10:10:12;;;;;;;2.00;1.10;;;;;;;18.63;100.00;99473.37;273690;1267;22263;-87
2023/09/02 10:16:14;;;;;;;2.80;1.10;;;;;;;18.84;100.00;99467.98;273487;1267;23232;-87
2023/09/02 10:22:19;;;;;;;1.10;1.00;;;;;;;19.08;100.00;99476.65;273498;1268;23564;-87
2023/09/02 10:28:25;;;;;;;2.90;1.40;;;;;;;19.28;100.00;99482.55;273582;1267;22607;-86
2023/09/02 10:34:31;;;;;;;3.90;1.60;;;;;;;19.31;100.00;99486.40;271706;1267;22714;-86
2023/09/02 10:40:38;;;;;;;1.90;1.50;;;;;;;19.43;100.00;99492.86;270361;1267;22646;-86
2023/09/02 10:46:39;;;;;;;2.40;1.40;;;;;;;19.69;100.00;99485.13;273252;1268;22411;-86
2023/09/02 10:52:40;;;;;;;1.60;1.40;;;;;;;19.92;100.00;99489.13;273135;1268;22596;-86
2023/09/02 10:58:46;;;;;;;2.50;1.70;;;;;;;20.18;100.00;99495.02;272014;1268;22230;-87
2023/09/02 11:04:53;;;;;;;2.50;1.90;;;;;;;20.32;100.00;99493.72;273773;1266;22348;-85
2023/09/02 11:34:55;;;;;;;2.50;2.10;;;;;;;20.90;100.00;99514.08;273503;1267;22341;-85
2023/09/02 12:20:24;;;;;;;2.70;2.00;;;;;;;21.73;100.00;99500.48;273364;1268;22360;-86
2023/09/02 12:26:25;;;;;;;2.80;2.20;;;;;;;21.77;100.00;99502.38;273510;1267;23232;-85
2023/09/02 12:32:26;;;;;;;2.90;2.40;;;;;;;21.79;100.00;99505.92;273440;1266;22201;-87
2023/09/02 12:38:27;;;;;;;3.60;2.70;;;;;;;21.67;100.00;99515.29;271493;1268;22667;-86
2023/09/02 12:44:28;;;;;;;2.50;2.20;;;;;;;21.55;100.00;99517.33;272366;1267;22200;-85
2023/09/02 12:50:30;;;;;;;5.10;2.80;;;;;;;21.52;100.00;99516.91;272446;1266;22943;-86
2023/09/02 12:56:31;;;;;;;4.30;2.50;;;;;;;21.46;100.00;99515.08;273567;1268;23307;-86
2023/09/02 13:02:32;;;;;;;2.60;2.10;;;;;;;21.53;100.00;99512.20;273544;1268;22393;-87
2023/09/02 13:08:33;;;;;;;3.90;2.30;;;;;;;21.63;100.00;99504.80;273504;1267;22183;-86
2023/09/02 13:14:34;;;;;;;2.70;2.30;;;;;;;21.69;100.00;99505.83;273572;1262;22407;-86
2023/09/02 13:20:35;;;;;;;2.60;2.00;;;;;;;21.74;100.00;99499.58;273350;1268;22689;-86
2023/09/02 13:26:37;;;;;;;4.10;2.00;;;;;;;21.71;100.00;99501.48;272738;1267;24532;-85
2023/09/02 13:32:38;;;;;;;2.00;1.70;;;;;;;21.70;100.00;99503.03;273414;1267;22437;-86
2023/09/02 13:38:40;;;;;;;2.90;1.40;;;;;;;21.69;100.00;99501.92;273511;1268;22499;-86
2023/09/02 13:44:42;;;;;;;2.80;1.40;;;;;;;21.64;99.96;99510.09;273591;1268;22255;-88
2023/09/02 13:50:45;;;;;;;2.90;1.40;;;;;;;21.51;98.82;99514.39;273469;1268;22237;-85
2023/09/02 13:56:47;;;;;;;2.00;1.40;;;;;;;21.42;98.39;99508.98;272884;1268;22409;-85
2023/09/02 14:02:48;;;;;;;2.10;1.70;;;;;;;21.27;98.75;99514.53;272498;1262;23000;-88
2023/09/02 14:08:49;;;;;;;2.20;1.60;;;;;;;21.26;98.63;99511.45;273321;1267;22217;-87
2023/09/02 14:14:50;;;;;;;1.80;1.60;;;;;;;21.29;98.52;99512.70;273524;1268;22433;-86
2023/09/02 14:20:51;;;;;;;2.20;1.70;;;;;;;21.29;98.55;99513.02;273474;1268;22212;-86
2023/09/02 14:27:09;;;;;;;2.80;1.70;;;;;;;21.32;97.67;99507.89;273216;1268;22641;-86
2023/09/02 14:33:10;;;;;;;1.60;1.40;;;;;;;21.36;96.25;99505.88;272852;1267;22277;-85
2023/09/02 14:39:13;;;;;;;2.40;1.70;;;;;;;21.33;94.79;99505.31;273523;1267;22413;-85
2023/09/02 14:45:14;;;;;;;3.50;1.50;;;;;;;21.27;95.05;99504.91;272136;1267;22501;-86
2023/09/02 14:51:16;;;;;;;2.40;1.50;;;;;;;21.20;95.21;99507.38;271414;1267;22459;-86
2023/09/02 14:57:17;;;;;;;1.30;1.20;;;;;;;21.14;95.21;99510.36;273508;1267;22384;-87
2023/09/02 15:03:24;;;;;;;3.70;1.20;;;;;;;21.10;94.63;99512.70;273323;1267;23156;-88
2023/09/02 15:09:30;;;;;;;2.70;1.70;;;;;;;21.07;94.82;99514.75;272405;1268;22446;-85
2023/09/02 15:15:40;;;;;;;1.70;1.50;;;;;;;21.00;94.40;99521.91;271980;1266;22847;-85
2023/09/02 15:21:41;;;;;;;1.50;1.30;;;;;;;20.87;94.63;99520.34;270965;1268;22556;-85
2023/09/02 15:36:26;;;;;;;2.90;1.90;;;;;;;20.78;95.31;99516.02;272430;1268;22554;-86
2023/09/02 15:42:28;;;;;;;1.70;1.60;;;;;;;20.75;95.22;99514.40;272453;1267;22210;-85
2023/09/02 15:48:29;;;;;;;2.00;1.80;;;;;;;20.71;94.88;99517.77;273248;1267;22553;-86
2023/09/02 15:54:31;;;;;;;3.40;1.80;;;;;;;20.65;94.68;99513.60;272847;1267;22331;-85
2023/09/02 16:00:32;;;;;;;2.90;2.00;;;;;;;20.59;94.94;99511.18;273358;1268;22378;-85
2023/09/02 16:06:33;;;;;;;3.00;1.90;;;;;;;20.55;94.98;99516.98;273473;1267;22873;-85
2023/09/02 16:12:34;;;;;;;2.30;1.80;;;;;;;20.52;95.15;99524.35;273434;1268;22454;-86
2023/09/02 16:18:36;;;;;;;2.00;1.80;;;;;;;20.47;94.88;99525.56;273591;1266;22200;-85
2023/09/02 16:24:37;;;;;;;1.90;1.60;;;;;;;20.37;95.03;99520.69;273563;1267;22570;-85
2023/09/02 16:30:38;;;;;;;2.20;2.00;;;;;;;20.25;95.00;99525.86;272867;1267;22550;-86
2023/09/02 16:36:40;;;;;;;1.90;1.60;;;;;;;20.16;95.24;99533.41;271829;1269;22556;-85
2023/09/02 16:42:42;;;;;;;2.50;2.00;;;;;;;20.12;95.47;99535.85;270574;1270;22533;-86
2023/09/02 16:48:44;;;;;;;2.10;1.90;;;;;;;20.04;95.51;99534.08;270582;1267;22742;-85
2023/09/02 16:54:45;;;;;;;2.20;2.00;;;;;;;19.96;95.51;99542.40;271321;1268;23582;-86
2023/09/02 17:00:46;;;;;;;3.60;2.30;;;;;;;19.89;95.58;99542.22;273597;1265;22338;-86
2023/09/02 17:06:47;;;;;;;3.10;2.10;;;;;;;19.81;96.70;99544.73;273415;1269;22374;-86
2023/09/02 17:12:51;;;;;;;3.10;2.80;;;;;;;19.66;97.05;99552.38;273287;1267;22331;-86
2023/09/02 17:18:52;;;;;;;4.80;2.80;;;;;;;19.51;97.72;99553.89;271072;1269;22928;-85
2023/09/02 17:24:53;;;;;;;4.60;3.00;;;;;;;19.37;98.76;99553.00;271692;1269;22303;-88
2023/09/02 17:30:56;;;;;;;5.90;3.40;;;;;;;19.20;99.50;99559.02;273457;1269;22361;-85
2023/09/02 17:36:57;;;;;;;7.50;3.60;;;;;;;19.03;99.97;99562.05;273226;1268;22322;-84
2023/09/02 17:42:58;;;;;;;6.80;4.70;;;;;;;18.92;100.00;99565.59;273108;1268;22346;-84
2023/09/02 17:48:59;;;;;;;9.70;6.10;;;;;;;18.78;100.00;99571.50;265667;1269;10001255;-84
2023/09/02 17:55:00;;;;;;;14.30;9.90;;;;;;;18.60;100.00;99573.77;272772;1258;101641;-85
2023/09/02 18:01:01;;;;;;;12.80;8.90;;;;;;;18.43;100.00;99565.73;271561;1267;23651;-87
2023/09/02 18:07:03;;;;;;;14.80;9.00;;;;;;;18.21;100.00;99569.05;273375;1267;22407;-86
2023/09/02 18:13:06;;;;;;;13.60;9.30;;;;;;;18.11;100.00;99573.52;271916;1267;22586;-86
2023/09/02 18:19:23;;;;;;;12.70;9.20;;;;;;;18.06;100.00;99590.17;272442;1267;22166;-85
2023/09/02 18:25:24;;;;;;;13.90;9.80;;;;;;;17.94;100.00;99597.33;272390;1268;22447;-85
2023/09/02 18:31:25;;;;;;;12.90;8.90;;;;;;;17.83;100.00;99594.66;273456;1267;22361;-85
2023/09/02 18:37:26;;;;;;;17.90;12.20;;;;;;;17.70;100.00;99601.41;272802;1267;22548;-85
2023/09/02 18:43:27;;;;;;;20.20;13.00;;;;;;;17.59;100.00;99607.59;271200;1267;24979;-85
2023/09/02 18:49:28;;;;;;;48.10;27.20;;;;;;;17.52;100.00;99609.94;272821;1267;22420;-86
2023/09/02 18:55:29;;;;;;;42.60;24.10;;;;;;;17.42;100.00;99610.84;271922;1266;22979;-86
2023/09/02 19:01:36;;;;;;;45.50;24.60;;;;;;;17.21;100.00;99613.02;271820;1267;25423;-85
2023/09/02 19:07:37;;;;;;;33.30;20.20;;;;;;;17.05;100.00;99613.11;272672;1268;22430;-86
2023/09/02 19:13:42;;;;;;;25.80;16.80;;;;;;;16.96;100.00;99613.70;273537;1267;22393;-86
2023/09/02 19:19:47;;;;;;;31.20;19.90;;;;;;;16.88;100.00;99615.65;273392;1268;22410;-86
2023/09/02 19:25:48;;;;;;;31.90;20.50;;;;;;;16.78;100.00;99611.81;273254;1267;23809;-86
2023/09/02 19:31:49;;;;;;;27.10;17.10;;;;;;;16.67;100.00;99611.30;273647;1264;22276;-86
2023/09/02 19:37:50;;;;;;;30.90;21.20;;;;;;;16.55;100.00;99611.27;273517;1267;22210;-85
2023/09/02 19:43:51;;;;;;;24.90;15.40;;;;;;;16.46;100.00;99607.97;273841;1268;22496;-86
2023/09/02 19:49:57;;;;;;;28.30;18.80;;;;;;;16.31;100.00;99607.27;273580;1267;22210;-85
2023/09/02 19:55:59;;;;;;;25.40;16.00;;;;;;;16.20;100.00;99611.24;273584;1267;22228;-86
2023/09/02 20:02:15;;;;;;;20.60;14.70;;;;;;;16.14;100.00;99624.42;273562;1267;22399;-86
2023/09/02 20:08:17;;;;;;;20.20;13.30;;;;;;;16.16;100.00;99633.98;273540;1269;22361;-85
2023/09/02 20:14:18;;;;;;;19.30;12.60;;;;;;;16.14;100.00;99633.19;273600;1267;22412;-86
2023/09/02 20:20:19;;;;;;;18.40;11.90;;;;;;;16.09;100.00;99632.56;273347;1267;22991;-86
2023/09/02 20:26:20;;;;;;;17.50;11.50;;;;;;;16.05;100.00;99632.49;273627;1267;22505;-86
2023/09/02 20:32:21;;;;;;;16.10;11.20;;;;;;;15.99;100.00;99636.12;273471;1268;22192;-86
2023/09/02 20:38:22;;;;;;;20.60;11.10;;;;;;;15.92;100.00;99639.75;273762;1267;22210;-85
2023/09/02 20:44:24;;;;;;;16.30;11.70;;;;;;;15.86;100.00;99644.88;273781;1267;22910;-85
2023/09/02 20:50:25;;;;;;;20.20;11.00;;;;;;;15.79;100.00;99642.66;273634;1267;22179;-85
2023/09/02 20:56:29;;;;;;;15.90;12.00;;;;;;;15.79;100.00;99649.39;271594;1260;22555;-85
2023/09/02 21:02:29;;;;;;;14.80;11.50;;;;;;;15.76;100.00;99653.00;271686;1267;23604;-86
2023/09/02 21:08:30;;;;;;;19.50;12.50;;;;;;;15.75;100.00;99651.73;273647;1268;22417;-86
2023/09/02 21:14:31;;;;;;;15.20;11.50;;;;;;;15.78;100.00;99657.95;272653;1267;22242;-86
2023/09/02 21:20:33;;;;;;;17.20;10.60;;;;;;;15.81;100.00;99664.04;273710;1267;23389;-86
2023/09/02 21:26:34;;;;;;;20.20;11.10;;;;;;;15.80;100.00;99667.77;271473;1268;23133;-85
2023/09/02 21:32:38;;;;;;;16.30;11.90;;;;;;;15.78;100.00;99672.40;270615;1267;23320;-85
2023/09/02 21:38:39;;;;;;;14.90;10.80;;;;;;;15.75;100.00;99672.33;271017;1267;23906;-86
2023/09/02 21:44:40;;;;;;;16.60;10.90;;;;;;;15.68;100.00;99672.70;270383;1267;22660;-87
2023/09/02 21:50:41;;;;;;;17.40;11.60;;;;;;;15.63;100.00;99672.69;269779;1268;22474;-86
2023/09/02 21:56:42;;;;;;;14.50;10.00;;;;;;;15.56;100.00;99677.27;269967;1268;22548;-86
2023/09/02 22:02:56;;;;;;;20.00;12.90;;;;;;;15.49;100.00;99673.39;270364;1267;22316;-86
2023/09/02 22:10:08;;;;;;;20.90;11.50;;;;;;;15.41;100.00;99672.81;269823;1272;22548;-86
2023/09/02 22:15:59;;;;;;;24.80;12.70;;;;;;;15.30;100.00;99664.89;272656;1272;22331;-86
2023/09/02 22:22:00;;;;;;;20.00;10.30;;;;;;;15.24;100.00;99656.27;272167;1268;23420;-86
2023/09/02 22:28:02;;;;;;;15.70;10.60;;;;;;;15.16;100.00;99657.73;271964;1273;23043;-86
2023/09/02 22:34:06;;;;;;;23.60;11.30;;;;;;;15.09;100.00;99664.73;272414;1272;22315;-86
2023/09/02 22:40:11;;;;;;;17.70;10.30;;;;;;;15.07;100.00;99667.48;271898;1267;22456;-86
2023/09/02 22:46:12;;;;;;;17.50;11.60;;;;;;;15.03;100.00;99659.90;272417;1270;22515;-85
2023/09/02 22:52:13;;;;;;;16.80;12.30;;;;;;;15.02;100.00;99664.70;272503;1273;22283;-85
2023/09/02 22:58:15;;;;;;;17.50;12.30;;;;;;;14.99;100.00;99660.74;272399;1273;22485;-86
2023/09/02 23:04:17;;;;;;;19.50;11.20;;;;;;;14.97;100.00;99654.99;272401;1273;22240;-86
2023/09/02 23:10:19;;;;;;;20.30;12.30;;;;;;;14.92;100.00;99652.54;271674;1268;22252;-85
2023/09/02 23:16:22;;;;;;;19.80;10.60;;;;;;;14.86;100.00;99648.02;271197;1273;22603;-85
2023/09/02 23:22:23;;;;;;;15.30;11.00;;;;;;;14.84;100.00;99644.16;269874;1273;22564;-85
2023/09/02 23:28:24;;;;;;;18.50;11.90;;;;;;;14.80;100.00;99633.50;269078;1274;156175;-84
2023/09/02 23:34:25;;;;;;;20.00;11.10;;;;;;;14.70;100.00;99615.66;270019;1273;22256;-85
2023/09/02 23:40:27;;;;;;;14.20;10.60;;;;;;;14.59;100.00;99609.16;270851;1273;22668;-85
2023/09/02 23:46:28;;;;;;;15.90;11.00;;;;;;;14.49;100.00;99607.45;270812;1273;22961;-87
2023/09/02 23:52:29;;;;;;;18.10;10.30;;;;;;;14.46;100.00;99602.48;270879;1273;22572;-85
2023/09/02 23:58:31;;;;;;;14.00;10.80;;;;;;;14.52;100.00;99601.88;270702;1273;22348;-86
